Baltic Freedom — 9HA3690 — position and weather

sailwx.info

Track history (hours):
 
Tides and Currents Weather Stations Pressure Air Temp Water Temp Dewpoint Dewpoint Depression Visibility Wind Speed Wind Dir Waves Ship Positions

Baltic Freedom

Last reported at 2017-Dec-07 17:41 UTC. Time now 2017-Dec-12 00:38 UTC.
Position N 37°57' E 024°37'.

Length 182 m; draft 7.3 m.

Type: Ship. MMSI: 229881000.

Date/timePositionNaut miles runAvg speedWind from/ knotsBaromVisibWave heightAir tempDewpointWater temp
2017-Dec-07 17:41N 37°57' E 024°37'310.3
2017-Dec-07 17:26N 37°55' E 024°36'410.3
2017-Dec-07 17:00N 37°51' E 024°32'510.1
2017-Dec-07 16:31N 37°48' E 024°27'510.8
2017-Dec-07 16:01N 37°45' E 024°22'610.8
2017-Dec-07 15:29N 37°42' E 024°16'510.8
2017-Dec-07 15:01N 37°38' E 024°12'2 4.1
2017-Dec-07 14:30N 37°36' E 024°11'4 7.1
2017-Dec-07 14:01N 37°33' E 024°09'611.4
2017-Dec-07 13:31N 37°27' E 024°07'611.1
2017-Dec-07 13:01N 37°22' E 024°06'611.1
2017-Dec-07 12:28N 37°16' E 024°04'511.1
2017-Dec-07 12:01N 37°11' E 024°03'611.0
2017-Dec-07 11:30N 37°06' E 024°02'611.0
2017-Dec-07 11:00N 37°00' E 024°01'510.7
2017-Dec-07 10:31N 36°55' E 024°00'510.4
2017-Dec-07 10:01N 36°50' E 023°59'510.3
2017-Dec-07 09:31N 36°45' E 023°56'811.1
2017-Dec-07 08:49N 36°40' E 023°49'411.1
2017-Dec-07 08:30N 36°39' E 023°45'  
2017-Dec-04 10:01N 37°23' E 015°42'0 0.5
2017-Dec-04 10:00N 37°23' E 015°42'1 0.4
2017-Dec-04 08:20N 37°23' E 015°42'0 0.3
2017-Dec-04 07:41N 37°23' E 015°42'0 0.4
2017-Dec-04 07:30N 37°23' E 015°41'0 0.4
2017-Dec-04 06:59N 37°23' E 015°41'0 0.4
2017-Dec-04 06:22N 37°23' E 015°41'0 0.4
2017-Dec-04 05:32N 37°22' E 015°41'0 0.4
2017-Dec-04 05:25N 37°22' E 015°41'0 0.3
2017-Dec-04 04:59N 37°22' E 015°40'0 0.4
2017-Dec-04 04:30N 37°22' E 015°40'1 0.5
2017-Dec-04 02:37N 37°22' E 015°39'8 0.4
2017-Dec-03 06:34N 37°23' E 015°49'0 0.5
2017-Dec-03 06:14N 37°22' E 015°49'0 0.6
2017-Dec-03 05:51N 37°22' E 015°48'0 0.6
2017-Dec-03 05:18N 37°22' E 015°48'1 0.6
2017-Dec-03 04:22N 37°22' E 015°47'0 0.6
2017-Dec-03 03:56N 37°22' E 015°47'1 0.7
2017-Dec-03 03:08N 37°22' E 015°46'0 0.8
2017-Dec-03 02:54N 37°22' E 015°46'0 0.9
2017-Dec-03 02:30N 37°22' E 015°46'1 0.9
2017-Dec-03 01:49N 37°22' E 015°45'0 1.0
2017-Dec-03 01:27N 37°21' E 015°44'0 1.0
2017-Dec-03 01:00N 37°21' E 015°44'1 1.1
2017-Dec-03 00:29N 37°21' E 015°43'1 1.2
2017-Dec-02 23:58N 37°21' E 015°42'1 1.3
2017-Dec-02 23:30N 37°21' E 015°42'1 1.4
2017-Dec-02 22:58N 37°20' E 015°41'7 0.9
2017-Dec-02 14:58N 37°16' E 015°34'394 8.2
2017-Nov-30 15:13N 36°33' E 023°43'311.1
2017-Nov-30 14:57N 36°35' E 023°46'511.0
2017-Nov-30 14:30N 36°39' E 023°50'610.7
2017-Nov-30 13:59N 36°43' E 023°55'610.9
2017-Nov-30 13:26N 36°47' E 023°59'511.3
2017-Nov-30 13:00N 36°52' E 024°02'611.1
2017-Nov-30 12:30N 36°57' E 024°04'510.9
2017-Nov-30 12:01N 37°02' E 024°06'510.8
2017-Nov-30 11:30N 37°07' E 024°08'510.7
2017-Nov-30 11:00N 37°12' E 024°11'510.8
2017-Nov-30 10:30N 37°17' E 024°13'510.7
2017-Nov-30 10:00N 37°22' E 024°15'511.0
2017-Nov-30 09:30N 37°28' E 024°17'510.6
2017-Nov-30 09:00N 37°32' E 024°22'510.3
2017-Nov-30 08:30N 37°35' E 024°26'5 9.2
2017-Nov-30 08:00N 37°39' E 024°30'611.2
2017-Nov-30 07:30N 37°45' E 024°31'611.6
2017-Nov-30 07:00N 37°50' E 024°33'611.7
2017-Nov-30 06:27N 37°56' E 024°36'  
Track history (hours):
 
Tides and Currents Weather Stations Pressure Air Temp Water Temp Dewpoint Dewpoint Depression Visibility Wind Speed Wind Dir Waves Ship Positions

Baltic Freedom

Last reported at 2017-Dec-07 17:41 UTC. Time now 2017-Dec-12 00:38 UTC.
Position N 37°57' E 024°37'.

Length 182 m; draft 7.3 m.

Type: Ship. MMSI: 229881000.

Date/timePositionNaut miles runAvg speedWind from/ knotsBaromVisibWave heightAir tempDewpointWater temp
2017-Dec-07 17:41N 37°57' E 024°37'310.3
2017-Dec-07 17:26N 37°55' E 024°36'410.3
2017-Dec-07 17:00N 37°51' E 024°32'510.1
2017-Dec-07 16:31N 37°48' E 024°27'510.8
2017-Dec-07 16:01N 37°45' E 024°22'610.8
2017-Dec-07 15:29N 37°42' E 024°16'510.8
2017-Dec-07 15:01N 37°38' E 024°12'2 4.1
2017-Dec-07 14:30N 37°36' E 024°11'4 7.1
2017-Dec-07 14:01N 37°33' E 024°09'611.4
2017-Dec-07 13:31N 37°27' E 024°07'611.1
2017-Dec-07 13:01N 37°22' E 024°06'611.1
2017-Dec-07 12:28N 37°16' E 024°04'511.1
2017-Dec-07 12:01N 37°11' E 024°03'611.0
2017-Dec-07 11:30N 37°06' E 024°02'611.0
2017-Dec-07 11:00N 37°00' E 024°01'510.7
2017-Dec-07 10:31N 36°55' E 024°00'510.4
2017-Dec-07 10:01N 36°50' E 023°59'510.3
2017-Dec-07 09:31N 36°45' E 023°56'811.1
2017-Dec-07 08:49N 36°40' E 023°49'411.1
2017-Dec-07 08:30N 36°39' E 023°45'  
2017-Dec-04 10:01N 37°23' E 015°42'0 0.5
2017-Dec-04 10:00N 37°23' E 015°42'1 0.4
2017-Dec-04 08:20N 37°23' E 015°42'0 0.3
2017-Dec-04 07:41N 37°23' E 015°42'0 0.4
2017-Dec-04 07:30N 37°23' E 015°41'0 0.4
2017-Dec-04 06:59N 37°23' E 015°41'0 0.4
2017-Dec-04 06:22N 37°23' E 015°41'0 0.4
2017-Dec-04 05:32N 37°22' E 015°41'0 0.4
2017-Dec-04 05:25N 37°22' E 015°41'0 0.3
2017-Dec-04 04:59N 37°22' E 015°40'0 0.4
2017-Dec-04 04:30N 37°22' E 015°40'1 0.5
2017-Dec-04 02:37N 37°22' E 015°39'8 0.4
2017-Dec-03 06:34N 37°23' E 015°49'0 0.5
2017-Dec-03 06:14N 37°22' E 015°49'0 0.6
2017-Dec-03 05:51N 37°22' E 015°48'0 0.6
2017-Dec-03 05:18N 37°22' E 015°48'1 0.6
2017-Dec-03 04:22N 37°22' E 015°47'0 0.6
2017-Dec-03 03:56N 37°22' E 015°47'1 0.7
2017-Dec-03 03:08N 37°22' E 015°46'0 0.8
2017-Dec-03 02:54N 37°22' E 015°46'0 0.9
2017-Dec-03 02:30N 37°22' E 015°46'1 0.9
2017-Dec-03 01:49N 37°22' E 015°45'0 1.0
2017-Dec-03 01:27N 37°21' E 015°44'0 1.0
2017-Dec-03 01:00N 37°21' E 015°44'1 1.1
2017-Dec-03 00:29N 37°21' E 015°43'1 1.2
2017-Dec-02 23:58N 37°21' E 015°42'1 1.3
2017-Dec-02 23:30N 37°21' E 015°42'1 1.4
2017-Dec-02 22:58N 37°20' E 015°41'7 0.9
2017-Dec-02 14:58N 37°16' E 015°34'394 8.2
2017-Nov-30 15:13N 36°33' E 023°43'311.1
2017-Nov-30 14:57N 36°35' E 023°46'511.0
2017-Nov-30 14:30N 36°39' E 023°50'610.7
2017-Nov-30 13:59N 36°43' E 023°55'610.9
2017-Nov-30 13:26N 36°47' E 023°59'511.3
2017-Nov-30 13:00N 36°52' E 024°02'611.1
2017-Nov-30 12:30N 36°57' E 024°04'510.9
2017-Nov-30 12:01N 37°02' E 024°06'510.8
2017-Nov-30 11:30N 37°07' E 024°08'510.7
2017-Nov-30 11:00N 37°12' E 024°11'510.8
2017-Nov-30 10:30N 37°17' E 024°13'510.7
2017-Nov-30 10:00N 37°22' E 024°15'511.0
2017-Nov-30 09:30N 37°28' E 024°17'510.6
2017-Nov-30 09:00N 37°32' E 024°22'510.3
2017-Nov-30 08:30N 37°35' E 024°26'5 9.2
2017-Nov-30 08:00N 37°39' E 024°30'611.2
2017-Nov-30 07:30N 37°45' E 024°31'611.6
2017-Nov-30 07:00N 37°50' E 024°33'611.7
2017-Nov-30 06:27N 37°56' E 024°36'  

Dump ship's entire track history